createdAt,value
2023-04-18T00:00:48.725Z,12.40
2023-04-18T00:03:17.277Z,12.40
2023-04-18T00:05:47.846Z,12.40
2023-04-18T00:08:15.025Z,12.36
2023-04-18T00:10:42.239Z,12.32
2023-04-18T00:13:09.717Z,12.27
2023-04-18T00:15:37.309Z,12.24
2023-04-18T00:18:05.591Z,12.22
2023-04-18T00:20:33.366Z,12.19
2023-04-18T00:23:01.349Z,12.16
2023-04-18T00:25:28.949Z,12.14
2023-04-18T00:27:56.023Z,12.15
2023-04-18T00:30:24.267Z,12.16
2023-04-18T00:32:51.477Z,12.18
2023-04-18T00:35:18.981Z,12.16
2023-04-18T00:37:46.501Z,12.12
2023-04-18T00:40:16.333Z,12.09
2023-04-18T00:42:43.955Z,12.07
2023-04-18T00:45:11.215Z,12.04
2023-04-18T00:47:38.571Z,12.03
2023-04-18T00:50:07.026Z,12.02
2023-04-18T00:52:35.521Z,12.01
2023-04-18T00:55:03.538Z,11.98
2023-04-18T00:57:31.002Z,11.92
2023-04-18T00:59:59.028Z,11.86
2023-04-18T01:02:30.801Z,11.80
2023-04-18T01:04:58.089Z,11.78
2023-04-18T01:07:26.219Z,11.75
2023-04-18T01:09:55.510Z,11.72
2023-04-18T01:12:23.019Z,11.68
2023-04-18T01:14:50.218Z,11.64
2023-04-18T01:17:18.945Z,11.61
2023-04-18T01:19:46.601Z,11.57
2023-04-18T01:22:14.050Z,11.57
2023-04-18T01:24:41.667Z,11.56
2023-04-18T01:27:13.070Z,11.54
2023-04-18T01:29:40.505Z,11.51
2023-04-18T01:32:08.187Z,11.49
2023-04-18T01:34:35.742Z,11.44
2023-04-18T01:37:06.022Z,11.39
2023-04-18T01:39:33.524Z,11.39
2023-04-18T01:42:01.695Z,11.37
2023-04-18T01:44:28.954Z,11.32
2023-04-18T01:46:56.164Z,11.31
2023-04-18T01:49:23.770Z,11.27
2023-04-18T01:51:50.908Z,11.22
2023-04-18T01:54:18.075Z,11.16
2023-04-18T01:56:45.266Z,11.13
2023-04-18T01:59:12.575Z,11.15
2023-04-18T02:01:39.929Z,11.14
2023-04-18T02:04:07.215Z,11.13
2023-04-18T02:06:35.048Z,11.14
2023-04-18T02:09:02.281Z,11.15
2023-04-18T02:11:32.093Z,11.15
2023-04-18T02:13:59.434Z,11.13
2023-04-18T02:16:26.692Z,11.13
2023-04-18T02:18:53.972Z,11.14
2023-04-18T02:21:21.518Z,11.13
2023-04-18T02:23:49.288Z,11.11
2023-04-18T02:26:16.438Z,11.11
2023-04-18T02:28:43.429Z,11.07
2023-04-18T02:31:14.275Z,11.01
2023-04-18T02:33:42.270Z,10.97
2023-04-18T02:36:09.715Z,10.89
2023-04-18T02:38:37.240Z,10.83
2023-04-18T02:41:04.423Z,10.81
2023-04-18T02:43:33.630Z,10.78
2023-04-18T02:46:02.660Z,10.75
2023-04-18T02:48:30.081Z,10.75
2023-04-18T02:51:02.831Z,10.72
2023-04-18T02:53:30.909Z,10.68
2023-04-18T02:55:58.503Z,10.64
2023-04-18T02:58:34.291Z,10.63
2023-04-18T03:01:17.788Z,10.59
2023-04-18T03:03:55.564Z,10.55
2023-04-18T03:06:31.483Z,10.53
2023-04-18T03:09:00.685Z,10.48
2023-04-18T03:11:28.635Z,10.47
2023-04-18T03:13:56.661Z,10.48
2023-04-18T03:16:25.594Z,10.48
2023-04-18T03:18:53.283Z,10.48
2023-04-18T03:21:21.885Z,10.47
2023-04-18T03:23:49.238Z,10.47
2023-04-18T03:26:16.517Z,10.45
2023-04-18T03:28:44.546Z,10.41
2023-04-18T03:31:12.162Z,10.39
2023-04-18T03:33:41.947Z,10.39
2023-04-18T03:36:10.683Z,10.38
2023-04-18T03:38:40.104Z,10.34
2023-04-18T03:41:07.587Z,10.32
2023-04-18T03:43:35.682Z,10.31
2023-04-18T03:46:03.323Z,10.33
2023-04-18T03:48:30.625Z,10.36
2023-04-18T03:51:00.326Z,10.38
2023-04-18T03:53:27.804Z,10.38
2023-04-18T03:55:55.837Z,10.40
2023-04-18T03:58:24.698Z,10.44
2023-04-18T04:00:52.318Z,10.48
2023-04-18T04:03:19.995Z,10.51
2023-04-18T04:05:47.953Z,10.53
2023-04-18T04:08:16.075Z,10.58
2023-04-18T04:10:43.417Z,10.63
2023-04-18T04:13:10.860Z,10.64
2023-04-18T04:15:38.510Z,10.66
2023-04-18T04:18:08.203Z,10.67
2023-04-18T04:20:37.108Z,10.70
2023-04-18T04:23:13.496Z,10.77
2023-04-18T04:25:45.927Z,10.83
2023-04-18T04:28:23.643Z,10.88
2023-04-18T04:30:55.263Z,10.93
2023-04-18T04:33:32.784Z,10.95
2023-04-18T04:36:01.751Z,10.95
2023-04-18T04:38:30.799Z,10.94
2023-04-18T04:40:58.783Z,10.97
2023-04-18T04:43:28.396Z,11.05
2023-04-18T04:45:57.251Z,11.13
2023-04-18T04:48:24.718Z,11.22
2023-04-18T04:50:56.361Z,11.32
2023-04-18T04:53:25.047Z,11.43
2023-04-18T04:55:52.653Z,11.52
2023-04-18T04:58:20.206Z,11.60
2023-04-18T05:01:07.681Z,11.68
2023-04-18T05:03:38.633Z,11.71
2023-04-18T05:06:05.997Z,11.72
2023-04-18T05:08:33.120Z,11.74
2023-04-18T05:11:01.054Z,11.74
2023-04-18T05:13:28.653Z,11.74
2023-04-18T05:15:56.353Z,11.76
2023-04-18T05:18:23.401Z,11.77
2023-04-18T05:20:50.630Z,11.78
2023-04-18T05:23:18.042Z,11.81
2023-04-18T05:25:47.970Z,11.84
2023-04-18T05:28:15.773Z,11.85
2023-04-18T05:30:44.225Z,11.82
2023-04-18T05:33:11.462Z,11.80
2023-04-18T05:35:38.741Z,11.78
2023-04-18T05:38:05.886Z,11.80
2023-04-18T05:40:33.439Z,11.81
2023-04-18T05:43:00.917Z,11.84
2023-04-18T05:45:28.258Z,11.85
2023-04-18T05:47:56.036Z,11.83
2023-04-18T05:50:23.574Z,11.81
2023-04-18T05:52:50.763Z,11.78
2023-04-18T05:55:18.055Z,11.79
2023-04-18T05:57:45.536Z,11.81
2023-04-18T06:00:13.325Z,11.87
2023-04-18T06:02:41.072Z,11.94
2023-04-18T06:05:08.773Z,12.01
2023-04-18T06:07:36.941Z,12.07
2023-04-18T06:10:07.310Z,12.12
2023-04-18T06:12:34.826Z,12.13
2023-04-18T06:15:03.136Z,12.17
2023-04-18T06:17:30.668Z,12.21
2023-04-18T06:19:58.011Z,12.26
2023-04-18T06:22:25.342Z,12.24
2023-04-18T06:24:54.879Z,12.18
2023-04-18T06:27:30.485Z,12.10
2023-04-18T06:29:59.065Z,12.03
2023-04-18T06:32:26.825Z,11.95
2023-04-18T06:34:54.059Z,11.88
2023-04-18T06:37:21.341Z,11.87
2023-04-18T06:39:48.559Z,11.87
2023-04-18T06:42:15.780Z,11.88
2023-04-18T06:44:47.632Z,11.84
2023-04-18T06:47:14.711Z,11.81
2023-04-18T06:49:41.780Z,11.78
2023-04-18T06:52:08.833Z,11.79
2023-04-18T06:54:37.699Z,11.83
2023-04-18T06:57:05.062Z,11.89
2023-04-18T06:59:32.912Z,11.97
2023-04-18T07:02:00.244Z,12.04
2023-04-18T07:04:27.743Z,12.11
2023-04-18T07:06:55.104Z,12.21
2023-04-18T07:09:22.515Z,12.30
2023-04-18T07:11:51.892Z,12.40
2023-04-18T07:14:22.116Z,12.49
2023-04-18T07:16:49.244Z,12.54
2023-04-18T07:19:16.973Z,12.61
2023-04-18T07:21:45.615Z,12.69
2023-04-18T07:24:18.638Z,12.78
2023-04-18T07:26:46.287Z,12.83
2023-04-18T07:29:13.775Z,12.89
2023-04-18T07:31:41.218Z,12.96
2023-04-18T07:34:09.408Z,13.06
2023-04-18T07:36:37.106Z,13.19
2023-04-18T07:39:04.378Z,13.34
2023-04-18T07:41:32.449Z,13.49
2023-04-18T07:44:00.356Z,13.61
2023-04-18T07:46:27.644Z,13.66
2023-04-18T07:48:55.216Z,13.67
2023-04-18T07:51:25.005Z,13.66
2023-04-18T07:53:52.492Z,13.73
2023-04-18T07:56:19.642Z,13.87
2023-04-18T07:58:46.973Z,14.00
2023-04-18T08:01:17.761Z,14.13
2023-04-18T08:03:46.118Z,14.21
2023-04-18T08:06:14.215Z,14.22
2023-04-18T08:08:41.676Z,14.27
2023-04-18T08:11:08.928Z,14.41
2023-04-18T08:13:36.209Z,14.57
2023-04-18T08:16:03.341Z,14.68
2023-04-18T08:18:30.748Z,14.76
2023-04-18T08:20:58.200Z,14.82
2023-04-18T08:23:25.920Z,14.89
2023-04-18T08:25:53.183Z,14.98
2023-04-18T08:28:20.537Z,15.10
2023-04-18T08:30:48.795Z,15.17
2023-04-18T08:33:16.419Z,15.22
2023-04-18T08:35:43.845Z,15.23
2023-04-18T08:38:11.197Z,15.25
2023-04-18T08:40:39.142Z,15.28
2023-04-18T08:43:14.610Z,15.33
2023-04-18T08:45:42.306Z,15.43
2023-04-18T08:48:15.844Z,15.57
2023-04-18T08:50:43.466Z,15.69
2023-04-18T08:53:10.734Z,15.84
2023-04-18T08:55:37.904Z,15.93
2023-04-18T08:58:06.524Z,16.02
2023-04-18T09:00:35.181Z,16.13
2023-04-18T09:03:03.306Z,16.18
2023-04-18T09:05:31.026Z,16.14
2023-04-18T09:07:58.417Z,16.09
2023-04-18T09:10:26.964Z,16.04
2023-04-18T09:12:54.514Z,16.02
2023-04-18T09:15:26.725Z,16.10
2023-04-18T09:17:58.044Z,16.22
2023-04-18T09:20:34.720Z,16.31
2023-04-18T09:23:03.570Z,16.37
2023-04-18T09:25:35.597Z,16.38
2023-04-18T09:28:03.214Z,16.43
2023-04-18T09:30:37.378Z,16.54
2023-04-18T09:33:07.084Z,16.70
2023-04-18T09:35:34.924Z,16.86
2023-04-18T09:38:02.405Z,17.01
2023-04-18T09:40:30.536Z,17.20
2023-04-18T09:42:57.830Z,17.33
2023-04-18T09:45:25.154Z,17.41
2023-04-18T09:47:52.710Z,17.54
2023-04-18T09:50:20.460Z,17.79
2023-04-18T09:52:47.973Z,18.09
2023-04-18T09:55:18.136Z,18.35
2023-04-18T09:57:46.086Z,18.59
2023-04-18T10:00:20.976Z,18.82
2023-04-18T10:02:49.763Z,19.10
2023-04-18T10:05:19.525Z,19.45
2023-04-18T10:07:48.658Z,19.75
2023-04-18T10:10:16.644Z,19.88
2023-04-18T10:12:44.285Z,19.94
2023-04-18T10:15:11.460Z,20.07
2023-04-18T10:17:56.127Z,20.32
2023-04-18T10:20:29.040Z,20.66
2023-04-18T10:22:58.947Z,20.90
2023-04-18T10:25:39.304Z,20.91
2023-04-18T10:28:06.858Z,20.89
2023-04-18T10:30:39.580Z,21.02
2023-04-18T10:33:30.391Z,21.12
2023-04-18T10:35:59.670Z,21.27
2023-04-18T10:38:27.272Z,21.42
2023-04-18T10:41:13.562Z,21.58
2023-04-18T10:44:01.044Z,21.81
2023-04-18T10:46:32.577Z,21.95
2023-04-18T10:49:19.671Z,22.09
2023-04-18T10:51:50.794Z,22.33
2023-04-18T10:54:18.509Z,22.56
2023-04-18T10:56:55.379Z,22.78
2023-04-18T10:59:24.749Z,22.99
2023-04-18T11:01:55.532Z,23.10
2023-04-18T11:04:23.688Z,23.35
2023-04-18T11:06:54.897Z,23.60
2023-04-18T11:09:24.480Z,23.92
2023-04-18T11:12:23.604Z,24.24
2023-04-18T11:14:52.176Z,24.57
2023-04-18T11:17:21.576Z,24.86
2023-04-18T11:19:51.204Z,25.04
2023-04-18T11:22:20.014Z,25.20
2023-04-18T11:24:47.181Z,25.31
2023-04-18T11:27:14.399Z,25.41
2023-04-18T11:29:41.461Z,25.63
2023-04-18T11:32:08.866Z,25.93
2023-04-18T11:34:36.223Z,26.18
2023-04-18T11:37:06.951Z,26.49
2023-04-18T11:39:35.840Z,26.63
2023-04-18T11:42:03.064Z,26.45
2023-04-18T11:44:30.571Z,26.23
2023-04-18T11:46:57.885Z,26.21
2023-04-18T11:49:28.358Z,26.47
2023-04-18T11:51:55.912Z,26.80
2023-04-18T11:54:39.294Z,27.05
2023-04-18T11:57:06.986Z,27.32
2023-04-18T11:59:34.167Z,27.50
2023-04-18T12:02:14.698Z,27.71
2023-04-18T12:04:51.750Z,27.85
2023-04-18T12:07:32.946Z,27.93
2023-04-18T12:10:00.616Z,28.09
2023-04-18T12:12:28.407Z,28.21
2023-04-18T12:15:02.885Z,28.36
2023-04-18T12:17:30.511Z,28.51
2023-04-18T12:20:02.242Z,28.59
2023-04-18T12:22:41.523Z,28.57
2023-04-18T12:25:25.886Z,28.54
2023-04-18T12:27:54.839Z,28.60
2023-04-18T12:30:23.003Z,28.63
2023-04-18T12:32:53.985Z,28.71
2023-04-18T12:35:21.288Z,28.81
2023-04-18T12:37:49.446Z,28.85
2023-04-18T12:40:18.467Z,28.79
2023-04-18T12:42:46.330Z,28.71
2023-04-18T12:45:18.718Z,28.62
2023-04-18T12:47:47.854Z,28.48
2023-04-18T12:50:22.926Z,28.27
2023-04-18T12:52:51.685Z,28.23
2023-04-18T12:55:21.360Z,28.20
2023-04-18T12:57:49.760Z,28.11
2023-04-18T13:00:20.807Z,27.86
2023-04-18T13:06:10.046Z,27.32
2023-04-18T13:08:37.930Z,27.23
2023-04-18T13:11:30.055Z,27.10
2023-04-18T13:13:57.571Z,27.14
2023-04-18T13:16:25.459Z,27.14
2023-04-18T13:18:52.832Z,27.05
2023-04-18T13:21:20.001Z,27.15
2023-04-18T13:23:47.196Z,27.41
2023-04-18T13:26:14.421Z,27.66
2023-04-18T13:28:42.912Z,27.68
2023-04-18T13:31:10.045Z,27.55
2023-04-18T13:33:39.722Z,27.43
2023-04-18T13:36:07.036Z,27.42
2023-04-18T13:38:35.044Z,27.47
2023-04-18T13:41:12.255Z,27.48
2023-04-18T13:43:42.032Z,27.43
2023-04-18T13:46:12.571Z,27.46
2023-04-18T13:48:40.003Z,27.67
2023-04-18T13:51:07.226Z,27.74
2023-04-18T13:53:35.568Z,27.87
2023-04-18T13:56:02.928Z,28.03
2023-04-18T13:58:32.695Z,28.11
2023-04-18T14:01:00.545Z,28.16
2023-04-18T14:03:29.613Z,28.36
2023-04-18T14:05:58.936Z,28.50
2023-04-18T14:08:27.010Z,28.55
2023-04-18T14:10:55.108Z,28.56
2023-04-18T14:13:23.904Z,28.55
2023-04-18T14:15:52.252Z,28.34
2023-04-18T14:18:21.433Z,27.97
2023-04-18T14:20:48.541Z,27.49
2023-04-18T14:23:21.868Z,27.07
2023-04-18T14:26:05.508Z,26.57
2023-04-18T14:28:34.200Z,26.34
2023-04-18T14:31:02.577Z,26.11
2023-04-18T14:33:30.108Z,25.73
2023-04-18T14:36:01.858Z,25.38
2023-04-18T14:38:30.642Z,25.04
2023-04-18T14:41:18.043Z,25.10
2023-04-18T14:43:47.245Z,25.30
2023-04-18T14:46:17.089Z,25.33
2023-04-18T14:48:45.864Z,25.18
2023-04-18T14:51:15.814Z,24.99
2023-04-18T14:53:46.969Z,24.77
2023-04-18T14:56:24.681Z,24.49
2023-04-18T14:58:59.106Z,24.00
2023-04-18T15:01:29.198Z,23.52
2023-04-18T15:03:57.753Z,23.04
2023-04-18T15:06:28.320Z,22.63
2023-04-18T15:08:56.794Z,22.27
2023-04-18T15:11:24.664Z,21.91
2023-04-18T15:13:51.606Z,21.55
2023-04-18T15:16:20.445Z,21.29
2023-04-18T15:18:48.480Z,21.20
2023-04-18T15:24:18.078Z,21.12
2023-04-18T15:26:47.959Z,20.85
2023-04-18T15:29:15.461Z,20.64
2023-04-18T15:38:18.621Z,20.06
2023-04-18T15:52:26.488Z,18.88
2023-04-18T15:55:23.047Z,18.70
2023-04-18T15:59:13.830Z,18.50
2023-04-18T16:01:56.458Z,18.28
2023-04-18T16:04:26.506Z,18.15
2023-04-18T16:07:06.460Z,18.00
2023-04-18T16:09:33.711Z,17.85
2023-04-18T16:12:20.731Z,17.72
2023-04-18T16:14:50.709Z,17.55
2023-04-18T16:17:34.533Z,17.44
2023-04-18T16:20:03.286Z,17.30
2023-04-18T16:22:31.119Z,17.18
2023-04-18T16:24:58.206Z,17.06
2023-04-18T16:27:25.744Z,16.93
2023-04-18T16:29:53.435Z,16.77
2023-04-18T16:32:20.944Z,16.64
2023-04-18T16:34:48.421Z,16.50
2023-04-18T16:37:18.525Z,16.39
2023-04-18T16:39:48.580Z,16.29
2023-04-18T16:42:17.570Z,16.19
2023-04-18T16:45:09.816Z,16.11
2023-04-18T16:47:51.743Z,16.04
2023-04-18T16:50:45.284Z,15.95
2023-04-18T16:53:13.001Z,15.88
2023-04-18T16:55:55.376Z,15.79
2023-04-18T16:58:41.037Z,15.71
2023-04-18T17:01:31.583Z,15.60
2023-04-18T17:04:04.077Z,15.53
2023-04-18T17:10:20.311Z,15.40
2023-04-18T17:12:50.607Z,15.38
2023-04-18T17:19:28.044Z,15.28
2023-04-18T17:21:55.356Z,15.22
2023-04-18T17:24:26.811Z,15.16
2023-04-18T17:26:57.302Z,15.08
2023-04-18T17:29:24.756Z,15.00
2023-04-18T17:32:15.344Z,14.94
2023-04-18T17:34:42.715Z,14.85
2023-04-18T17:37:11.183Z,14.78
2023-04-18T17:39:44.396Z,14.70
2023-04-18T17:42:12.770Z,14.64
2023-04-18T17:44:41.250Z,14.59
2023-04-18T17:47:09.072Z,14.56
2023-04-18T17:49:36.551Z,14.54
2023-04-18T17:52:04.160Z,14.50
2023-04-18T17:54:33.340Z,14.47
2023-04-18T17:57:01.974Z,14.44
2023-04-18T17:59:30.430Z,14.39
2023-04-18T18:01:59.220Z,14.35
2023-04-18T18:04:27.520Z,14.33
2023-04-18T18:06:58.230Z,14.32
2023-04-18T18:09:25.457Z,14.31
2023-04-18T18:11:55.380Z,14.29
2023-04-18T18:14:23.353Z,14.25
2023-04-18T18:16:50.573Z,14.19
2023-04-18T18:19:17.868Z,14.10
2023-04-18T18:21:47.575Z,14.03
2023-04-18T18:24:15.817Z,13.96
2023-04-18T18:26:45.279Z,13.93
2023-04-18T18:29:15.056Z,13.91
2023-04-18T18:31:42.337Z,13.87
2023-04-18T18:34:10.904Z,13.82
2023-04-18T18:36:38.346Z,13.78
2023-04-18T18:39:05.662Z,13.73
2023-04-18T18:41:32.959Z,13.70
2023-04-18T18:44:00.587Z,13.68
2023-04-18T18:46:28.352Z,13.67
2023-04-18T18:48:56.002Z,13.67
2023-04-18T18:51:23.594Z,13.67
2023-04-18T18:53:54.290Z,13.67
2023-04-18T18:57:02.302Z,13.64
2023-04-18T18:59:29.991Z,13.64
2023-04-18T19:01:57.275Z,13.63
2023-04-18T19:04:25.600Z,13.63
2023-04-18T19:06:53.328Z,13.61
2023-04-18T19:09:20.731Z,13.57
2023-04-18T19:12:23.635Z,13.54
2023-04-18T19:14:51.090Z,13.51
2023-04-18T19:17:22.301Z,13.49
2023-04-18T19:19:51.279Z,13.46
2023-04-18T19:22:19.491Z,13.42
2023-04-18T19:24:47.495Z,13.40
2023-04-18T19:27:14.700Z,13.38
2023-04-18T19:29:41.819Z,13.32
2023-04-18T19:32:10.426Z,13.27
2023-04-18T19:34:37.750Z,13.23
2023-04-18T19:37:04.962Z,13.19
2023-04-18T19:39:32.416Z,13.14
2023-04-18T19:41:59.409Z,13.10
2023-04-18T19:44:27.067Z,13.07
2023-04-18T19:46:54.107Z,13.06
2023-04-18T19:49:44.669Z,13.06
2023-04-18T19:52:11.780Z,13.04
2023-04-18T19:54:40.855Z,13.01
2023-04-18T19:57:10.165Z,13.00
2023-04-18T19:59:37.702Z,12.97
2023-04-18T20:02:06.248Z,12.93
2023-04-18T20:04:36.135Z,12.89
2023-04-18T20:07:05.407Z,12.86
2023-04-18T20:09:32.841Z,12.83
2023-04-18T20:12:03.050Z,12.79
2023-04-18T20:14:31.353Z,12.77
2023-04-18T20:17:07.579Z,12.73
2023-04-18T20:19:37.896Z,12.71
2023-04-18T20:22:06.030Z,12.68
2023-04-18T20:24:34.244Z,12.64
2023-04-18T20:27:05.133Z,12.62
2023-04-18T20:29:33.143Z,12.59
2023-04-18T20:32:00.338Z,12.56
2023-04-18T20:34:27.565Z,12.50
2023-04-18T20:36:55.094Z,12.43
2023-04-18T20:39:22.406Z,12.41
2023-04-18T20:41:50.764Z,12.38
2023-04-18T20:44:22.023Z,12.36
2023-04-18T20:46:49.113Z,12.37
2023-04-18T20:49:16.385Z,12.40
2023-04-18T20:51:43.630Z,12.45
2023-04-18T20:54:11.443Z,12.50
2023-04-18T20:56:38.799Z,12.54
2023-04-18T20:59:06.646Z,12.55
2023-04-18T21:01:35.532Z,12.55
2023-04-18T21:04:04.841Z,12.55
2023-04-18T21:06:33.735Z,12.50
2023-04-18T21:09:00.938Z,12.48
2023-04-18T21:11:28.659Z,12.50
2023-04-18T21:13:55.715Z,12.51
2023-04-18T21:16:23.713Z,12.53
2023-04-18T21:18:50.952Z,12.55
2023-04-18T21:21:18.071Z,12.58
2023-04-18T21:23:45.300Z,12.59
2023-04-18T21:26:12.929Z,12.58
2023-04-18T21:28:58.563Z,12.55
2023-04-18T21:31:26.224Z,12.51
2023-04-18T21:33:57.946Z,12.47
2023-04-18T21:36:26.601Z,12.43
2023-04-18T21:38:54.242Z,12.44
2023-04-18T21:41:21.716Z,12.43
2023-04-18T21:43:49.102Z,12.42
2023-04-18T21:46:16.366Z,12.42
2023-04-18T21:48:44.963Z,12.40
2023-04-18T21:51:12.791Z,12.36
2023-04-18T21:53:41.162Z,12.31
2023-04-18T21:56:08.356Z,12.22
2023-04-18T21:58:35.615Z,12.14
2023-04-18T22:01:02.897Z,12.06
2023-04-18T22:03:31.144Z,12.00
2023-04-18T22:05:58.999Z,11.95
2023-04-18T22:08:26.291Z,11.92
2023-04-18T22:10:58.569Z,11.90
2023-04-18T22:13:29.422Z,11.87
2023-04-18T22:15:57.686Z,11.85
2023-04-18T22:18:24.886Z,11.87
2023-04-18T22:20:53.857Z,11.86
2023-04-18T22:23:21.289Z,11.82
2023-04-18T22:25:48.520Z,11.77
2023-04-18T22:28:15.804Z,11.71
2023-04-18T22:30:43.086Z,11.68
2023-04-18T22:33:11.652Z,11.66
2023-04-18T22:35:38.652Z,11.64
2023-04-18T22:38:05.955Z,11.65
2023-04-18T22:40:33.081Z,11.64
2023-04-18T22:43:00.608Z,11.63
2023-04-18T22:45:27.935Z,11.61
2023-04-18T22:47:54.980Z,11.57
2023-04-18T22:50:22.156Z,11.55
2023-04-18T22:52:50.662Z,11.53
2023-04-18T22:55:19.367Z,11.48
2023-04-18T22:57:46.624Z,11.44
2023-04-18T23:00:14.108Z,11.42
2023-04-18T23:02:41.661Z,11.43
2023-04-18T23:05:10.528Z,11.42
2023-04-18T23:07:38.208Z,11.38
2023-04-18T23:10:06.288Z,11.35
2023-04-18T23:12:34.064Z,11.32
2023-04-18T23:15:01.398Z,11.31
2023-04-18T23:17:28.863Z,11.31
2023-04-18T23:19:56.108Z,11.27
2023-04-18T23:22:23.805Z,11.18
2023-04-18T23:24:53.213Z,11.10
2023-04-18T23:27:20.575Z,11.08
2023-04-18T23:29:48.275Z,11.06
2023-04-18T23:32:16.138Z,11.04
2023-04-18T23:34:44.635Z,10.99
2023-04-18T23:37:11.668Z,10.95
2023-04-18T23:39:38.680Z,10.94
2023-04-18T23:42:06.027Z,10.95
2023-04-18T23:44:35.643Z,10.96
2023-04-18T23:47:03.374Z,10.97
2023-04-18T23:49:30.887Z,10.99
2023-04-18T23:51:58.020Z,11.03
2023-04-18T23:54:26.842Z,11.06
2023-04-18T23:56:54.363Z,11.07
2023-04-18T23:59:22.234Z,11.07
